sensor_id;sensor_type;location;lat;lon;timestamp;P1;durP1;ratioP1;P2;durP2;ratioP2
21103;SDS011;10710;53.398;-1.514;2022-12-18T00:01:03;17.10;;;6.85;;
21103;SDS011;10710;53.398;-1.514;2022-12-18T00:03:43;13.45;;;6.35;;
21103;SDS011;10710;53.398;-1.514;2022-12-18T00:06:09;56.03;;;21.25;;
21103;SDS011;10710;53.398;-1.514;2022-12-18T00:08:35;13.38;;;5.93;;
21103;SDS011;10710;53.398;-1.514;2022-12-18T00:11:05;14.50;;;6.05;;
21103;SDS011;10710;53.398;-1.514;2022-12-18T00:13:31;19.00;;;9.32;;
21103;SDS011;10710;53.398;-1.514;2022-12-18T00:16:04;13.68;;;6.25;;
21103;SDS011;10710;53.398;-1.514;2022-12-18T00:18:31;16.47;;;8.73;;
21103;SDS011;10710;53.398;-1.514;2022-12-18T00:20:59;17.60;;;5.00;;
21103;SDS011;10710;53.398;-1.514;2022-12-18T00:23:30;9.93;;;4.10;;
21103;SDS011;10710;53.398;-1.514;2022-12-18T00:25:59;10.80;;;4.50;;
21103;SDS011;10710;53.398;-1.514;2022-12-18T00:28:28;18.95;;;6.25;;
21103;SDS011;10710;53.398;-1.514;2022-12-18T00:31:05;12.00;;;5.82;;
21103;SDS011;10710;53.398;-1.514;2022-12-18T00:33:38;10.05;;;5.35;;
21103;SDS011;10710;53.398;-1.514;2022-12-18T00:36:05;9.35;;;4.40;;
21103;SDS011;10710;53.398;-1.514;2022-12-18T00:38:34;9.98;;;3.75;;
21103;SDS011;10710;53.398;-1.514;2022-12-18T00:41:00;7.95;;;3.70;;
21103;SDS011;10710;53.398;-1.514;2022-12-18T00:43:26;9.93;;;4.43;;
21103;SDS011;10710;53.398;-1.514;2022-12-18T00:45:52;11.32;;;4.63;;
21103;SDS011;10710;53.398;-1.514;2022-12-18T00:48:18;13.70;;;4.40;;
21103;SDS011;10710;53.398;-1.514;2022-12-18T00:50:44;11.25;;;3.50;;
21103;SDS011;10710;53.398;-1.514;2022-12-18T00:53:10;6.90;;;3.55;;
21103;SDS011;10710;53.398;-1.514;2022-12-18T00:55:39;7.33;;;3.87;;
21103;SDS011;10710;53.398;-1.514;2022-12-18T00:58:06;8.10;;;4.10;;
21103;SDS011;10710;53.398;-1.514;2022-12-18T01:00:33;12.88;;;4.68;;
21103;SDS011;10710;53.398;-1.514;2022-12-18T01:02:59;12.43;;;4.90;;
21103;SDS011;10710;53.398;-1.514;2022-12-18T01:05:27;8.65;;;3.05;;
21103;SDS011;10710;53.398;-1.514;2022-12-18T01:07:53;8.53;;;4.40;;
21103;SDS011;10710;53.398;-1.514;2022-12-18T01:10:19;12.50;;;4.80;;
21103;SDS011;10710;53.398;-1.514;2022-12-18T01:12:46;5.13;;;2.97;;
21103;SDS011;10710;53.398;-1.514;2022-12-18T01:15:12;9.60;;;3.53;;
21103;SDS011;10710;53.398;-1.514;2022-12-18T01:17:39;7.03;;;3.57;;
21103;SDS011;10710;53.398;-1.514;2022-12-18T01:20:05;10.38;;;3.63;;
21103;SDS011;10710;53.398;-1.514;2022-12-18T01:22:34;9.00;;;4.45;;
21103;SDS011;10710;53.398;-1.514;2022-12-18T01:25:00;6.40;;;3.95;;
21103;SDS011;10710;53.398;-1.514;2022-12-18T01:27:27;7.43;;;3.65;;
21103;SDS011;10710;53.398;-1.514;2022-12-18T01:29:53;9.60;;;3.50;;
21103;SDS011;10710;53.398;-1.514;2022-12-18T01:32:19;6.68;;;3.15;;
21103;SDS011;10710;53.398;-1.514;2022-12-18T01:34:45;7.60;;;3.40;;
21103;SDS011;10710;53.398;-1.514;2022-12-18T01:37:14;7.63;;;4.20;;
21103;SDS011;10710;53.398;-1.514;2022-12-18T01:39:40;10.77;;;3.63;;
21103;SDS011;10710;53.398;-1.514;2022-12-18T01:42:11;8.00;;;4.43;;
21103;SDS011;10710;53.398;-1.514;2022-12-18T01:50:11;7.15;;;3.72;;
21103;SDS011;10710;53.398;-1.514;2022-12-18T01:52:42;5.65;;;2.72;;
21103;SDS011;10710;53.398;-1.514;2022-12-18T01:55:10;12.68;;;4.10;;
21103;SDS011;10710;53.398;-1.514;2022-12-18T01:57:38;6.10;;;3.80;;
21103;SDS011;10710;53.398;-1.514;2022-12-18T02:00:10;12.30;;;5.03;;
21103;SDS011;10710;53.398;-1.514;2022-12-18T02:02:41;8.73;;;4.80;;
21103;SDS011;10710;53.398;-1.514;2022-12-18T02:05:09;10.45;;;4.43;;
21103;SDS011;10710;53.398;-1.514;2022-12-18T02:10:31;10.27;;;4.32;;
21103;SDS011;10710;53.398;-1.514;2022-12-18T02:15:51;7.60;;;4.33;;
21103;SDS011;10710;53.398;-1.514;2022-12-18T02:18:33;7.45;;;3.40;;
21103;SDS011;10710;53.398;-1.514;2022-12-18T02:21:27;7.50;;;3.35;;
21103;SDS011;10710;53.398;-1.514;2022-12-18T02:26:30;6.80;;;3.50;;
21103;SDS011;10710;53.398;-1.514;2022-12-18T02:29:04;8.38;;;3.95;;
21103;SDS011;10710;53.398;-1.514;2022-12-18T02:31:42;8.35;;;4.57;;
21103;SDS011;10710;53.398;-1.514;2022-12-18T02:34:15;8.30;;;4.00;;
21103;SDS011;10710;53.398;-1.514;2022-12-18T02:36:42;9.98;;;3.58;;
21103;SDS011;10710;53.398;-1.514;2022-12-18T02:39:11;5.95;;;3.63;;
21103;SDS011;10710;53.398;-1.514;2022-12-18T02:41:39;11.50;;;3.83;;
21103;SDS011;10710;53.398;-1.514;2022-12-18T02:44:09;6.82;;;3.47;;
21103;SDS011;10710;53.398;-1.514;2022-12-18T02:46:48;5.53;;;3.28;;
21103;SDS011;10710;53.398;-1.514;2022-12-18T02:54:45;8.20;;;3.72;;
21103;SDS011;10710;53.398;-1.514;2022-12-18T02:57:34;9.80;;;3.97;;
21103;SDS011;10710;53.398;-1.514;2022-12-18T03:00:37;8.88;;;3.72;;
21103;SDS011;10710;53.398;-1.514;2022-12-18T03:06:09;9.98;;;3.58;;
21103;SDS011;10710;53.398;-1.514;2022-12-18T03:08:44;7.07;;;3.47;;
21103;SDS011;10710;53.398;-1.514;2022-12-18T03:11:15;9.35;;;3.60;;
21103;SDS011;10710;53.398;-1.514;2022-12-18T03:14:01;7.68;;;3.55;;
21103;SDS011;10710;53.398;-1.514;2022-12-18T03:16:32;6.35;;;3.10;;
21103;SDS011;10710;53.398;-1.514;2022-12-18T03:19:08;5.95;;;3.15;;
21103;SDS011;10710;53.398;-1.514;2022-12-18T03:21:43;7.35;;;3.90;;
21103;SDS011;10710;53.398;-1.514;2022-12-18T03:24:15;6.85;;;3.60;;
21103;SDS011;10710;53.398;-1.514;2022-12-18T03:26:43;6.82;;;2.97;;
21103;SDS011;10710;53.398;-1.514;2022-12-18T03:29:13;8.95;;;3.28;;
21103;SDS011;10710;53.398;-1.514;2022-12-18T03:31:45;7.23;;;2.90;;
21103;SDS011;10710;53.398;-1.514;2022-12-18T03:34:17;6.45;;;2.90;;
21103;SDS011;10710;53.398;-1.514;2022-12-18T03:36:48;6.75;;;3.47;;
21103;SDS011;10710;53.398;-1.514;2022-12-18T03:39:15;5.97;;;3.17;;
21103;SDS011;10710;53.398;-1.514;2022-12-18T03:44:36;7.68;;;3.30;;
21103;SDS011;10710;53.398;-1.514;2022-12-18T03:50:18;6.38;;;3.65;;
21103;SDS011;10710;53.398;-1.514;2022-12-18T03:53:37;6.68;;;3.75;;
21103;SDS011;10710;53.398;-1.514;2022-12-18T03:55:51;8.07;;;3.42;;
21103;SDS011;10710;53.398;-1.514;2022-12-18T03:58:20;8.05;;;4.05;;
21103;SDS011;10710;53.398;-1.514;2022-12-18T04:00:54;9.70;;;3.58;;
21103;SDS011;10710;53.398;-1.514;2022-12-18T04:03:24;8.33;;;3.37;;
21103;SDS011;10710;53.398;-1.514;2022-12-18T04:05:59;11.48;;;4.68;;
21103;SDS011;10710;53.398;-1.514;2022-12-18T04:08:26;6.43;;;3.53;;
21103;SDS011;10710;53.398;-1.514;2022-12-18T04:10:57;6.82;;;3.45;;
21103;SDS011;10710;53.398;-1.514;2022-12-18T04:13:27;7.73;;;4.07;;
21103;SDS011;10710;53.398;-1.514;2022-12-18T04:16:06;7.70;;;3.70;;
21103;SDS011;10710;53.398;-1.514;2022-12-18T04:18:42;8.00;;;3.87;;
21103;SDS011;10710;53.398;-1.514;2022-12-18T04:21:19;10.20;;;4.27;;
21103;SDS011;10710;53.398;-1.514;2022-12-18T04:23:46;9.70;;;4.25;;
21103;SDS011;10710;53.398;-1.514;2022-12-18T04:26:20;8.07;;;3.30;;
21103;SDS011;10710;53.398;-1.514;2022-12-18T04:28:50;7.93;;;4.20;;
21103;SDS011;10710;53.398;-1.514;2022-12-18T04:31:22;7.70;;;4.07;;
21103;SDS011;10710;53.398;-1.514;2022-12-18T04:33:56;8.93;;;3.90;;
21103;SDS011;10710;53.398;-1.514;2022-12-18T04:36:43;6.83;;;3.53;;
21103;SDS011;10710;53.398;-1.514;2022-12-18T04:39:14;6.65;;;3.33;;
21103;SDS011;10710;53.398;-1.514;2022-12-18T04:41:50;11.25;;;3.65;;
21103;SDS011;10710;53.398;-1.514;2022-12-18T04:44:19;11.07;;;4.13;;
21103;SDS011;10710;53.398;-1.514;2022-12-18T04:46:51;9.30;;;4.00;;
21103;SDS011;10710;53.398;-1.514;2022-12-18T04:49:30;8.48;;;4.35;;
21103;SDS011;10710;53.398;-1.514;2022-12-18T04:52:08;9.35;;;3.78;;
21103;SDS011;10710;53.398;-1.514;2022-12-18T04:54:54;7.88;;;3.83;;
21103;SDS011;10710;53.398;-1.514;2022-12-18T04:57:28;8.85;;;3.97;;
21103;SDS011;10710;53.398;-1.514;2022-12-18T05:00:02;7.55;;;4.38;;
21103;SDS011;10710;53.398;-1.514;2022-12-18T05:02:29;8.10;;;4.25;;
21103;SDS011;10710;53.398;-1.514;2022-12-18T05:04:55;7.93;;;4.55;;
21103;SDS011;10710;53.398;-1.514;2022-12-18T05:07:20;7.13;;;3.87;;
21103;SDS011;10710;53.398;-1.514;2022-12-18T05:09:46;8.13;;;4.10;;
21103;SDS011;10710;53.398;-1.514;2022-12-18T05:12:12;11.03;;;4.33;;
21103;SDS011;10710;53.398;-1.514;2022-12-18T05:14:38;14.50;;;4.70;;
21103;SDS011;10710;53.398;-1.514;2022-12-18T05:17:03;10.33;;;4.77;;
21103;SDS011;10710;53.398;-1.514;2022-12-18T05:19:29;12.15;;;4.63;;
21103;SDS011;10710;53.398;-1.514;2022-12-18T05:21:55;11.23;;;4.15;;
21103;SDS011;10710;53.398;-1.514;2022-12-18T05:24:21;8.37;;;4.53;;
21103;SDS011;10710;53.398;-1.514;2022-12-18T05:26:46;11.30;;;5.47;;
21103;SDS011;10710;53.398;-1.514;2022-12-18T05:29:12;8.27;;;4.97;;
21103;SDS011;10710;53.398;-1.514;2022-12-18T05:31:38;11.15;;;5.20;;
21103;SDS011;10710;53.398;-1.514;2022-12-18T05:34:04;13.83;;;5.00;;
21103;SDS011;10710;53.398;-1.514;2022-12-18T05:36:31;9.20;;;4.57;;
21103;SDS011;10710;53.398;-1.514;2022-12-18T05:38:57;13.00;;;5.22;;
21103;SDS011;10710;53.398;-1.514;2022-12-18T05:41:23;10.48;;;4.95;;
21103;SDS011;10710;53.398;-1.514;2022-12-18T05:43:49;11.32;;;5.10;;
21103;SDS011;10710;53.398;-1.514;2022-12-18T05:46:16;12.90;;;5.28;;
21103;SDS011;10710;53.398;-1.514;2022-12-18T05:48:43;15.18;;;5.80;;
21103;SDS011;10710;53.398;-1.514;2022-12-18T05:51:13;14.35;;;5.88;;
21103;SDS011;10710;53.398;-1.514;2022-12-18T05:53:42;21.83;;;7.38;;
21103;SDS011;10710;53.398;-1.514;2022-12-18T05:56:09;16.42;;;6.75;;
21103;SDS011;10710;53.398;-1.514;2022-12-18T05:58:38;16.27;;;6.65;;
21103;SDS011;10710;53.398;-1.514;2022-12-18T06:03:34;16.00;;;7.03;;
21103;SDS011;10710;53.398;-1.514;2022-12-18T06:06:01;16.88;;;7.53;;
21103;SDS011;10710;53.398;-1.514;2022-12-18T06:08:27;15.48;;;7.18;;
21103;SDS011;10710;53.398;-1.514;2022-12-18T06:10:53;22.65;;;7.70;;
21103;SDS011;10710;53.398;-1.514;2022-12-18T06:13:19;17.27;;;6.35;;
21103;SDS011;10710;53.398;-1.514;2022-12-18T06:15:45;18.02;;;7.32;;
21103;SDS011;10710;53.398;-1.514;2022-12-18T06:18:11;20.38;;;8.40;;
21103;SDS011;10710;53.398;-1.514;2022-12-18T06:20:37;25.08;;;7.95;;
21103;SDS011;10710;53.398;-1.514;2022-12-18T06:23:05;20.77;;;8.00;;
21103;SDS011;10710;53.398;-1.514;2022-12-18T06:25:31;18.92;;;7.95;;
21103;SDS011;10710;53.398;-1.514;2022-12-18T06:27:58;20.73;;;7.97;;
21103;SDS011;10710;53.398;-1.514;2022-12-18T06:30:24;16.88;;;7.43;;
21103;SDS011;10710;53.398;-1.514;2022-12-18T06:32:51;24.80;;;9.03;;
21103;SDS011;10710;53.398;-1.514;2022-12-18T06:35:16;23.13;;;8.40;;
21103;SDS011;10710;53.398;-1.514;2022-12-18T06:37:42;24.47;;;9.73;;
21103;SDS011;10710;53.398;-1.514;2022-12-18T06:40:08;26.43;;;9.40;;
21103;SDS011;10710;53.398;-1.514;2022-12-18T06:42:34;25.98;;;9.05;;
21103;SDS011;10710;53.398;-1.514;2022-12-18T06:44:59;21.73;;;9.10;;
21103;SDS011;10710;53.398;-1.514;2022-12-18T06:47:25;26.17;;;8.88;;
21103;SDS011;10710;53.398;-1.514;2022-12-18T06:49:51;23.02;;;9.95;;
21103;SDS011;10710;53.398;-1.514;2022-12-18T06:52:17;24.08;;;9.10;;
21103;SDS011;10710;53.398;-1.514;2022-12-18T06:54:43;27.45;;;8.60;;
21103;SDS011;10710;53.398;-1.514;2022-12-18T06:57:09;24.60;;;9.70;;
21103;SDS011;10710;53.398;-1.514;2022-12-18T06:59:35;23.27;;;10.27;;
21103;SDS011;10710;53.398;-1.514;2022-12-18T07:02:01;20.57;;;9.47;;
21103;SDS011;10710;53.398;-1.514;2022-12-18T07:04:29;25.43;;;9.40;;
21103;SDS011;10710;53.398;-1.514;2022-12-18T07:06:56;22.05;;;9.10;;
21103;SDS011;10710;53.398;-1.514;2022-12-18T07:09:22;23.63;;;9.35;;
21103;SDS011;10710;53.398;-1.514;2022-12-18T07:11:48;23.52;;;9.48;;
21103;SDS011;10710;53.398;-1.514;2022-12-18T07:14:14;28.53;;;9.30;;
21103;SDS011;10710;53.398;-1.514;2022-12-18T07:16:40;29.00;;;9.90;;
21103;SDS011;10710;53.398;-1.514;2022-12-18T07:19:05;23.27;;;9.80;;
21103;SDS011;10710;53.398;-1.514;2022-12-18T07:21:31;29.47;;;10.63;;
21103;SDS011;10710;53.398;-1.514;2022-12-18T07:23:57;26.90;;;10.00;;
21103;SDS011;10710;53.398;-1.514;2022-12-18T07:26:23;26.07;;;9.97;;
21103;SDS011;10710;53.398;-1.514;2022-12-18T07:28:50;27.80;;;10.47;;
21103;SDS011;10710;53.398;-1.514;2022-12-18T07:31:20;27.25;;;11.15;;
21103;SDS011;10710;53.398;-1.514;2022-12-18T07:33:47;25.48;;;10.88;;
21103;SDS011;10710;53.398;-1.514;2022-12-18T07:36:13;24.20;;;10.52;;
21103;SDS011;10710;53.398;-1.514;2022-12-18T07:38:39;27.67;;;10.77;;
21103;SDS011;10710;53.398;-1.514;2022-12-18T07:41:06;26.30;;;10.13;;
21103;SDS011;10710;53.398;-1.514;2022-12-18T07:43:36;23.97;;;10.73;;
21103;SDS011;10710;53.398;-1.514;2022-12-18T07:46:03;26.05;;;10.27;;
21103;SDS011;10710;53.398;-1.514;2022-12-18T07:48:29;27.98;;;11.27;;
21103;SDS011;10710;53.398;-1.514;2022-12-18T07:50:59;32.17;;;12.05;;
21103;SDS011;10710;53.398;-1.514;2022-12-18T07:53:26;32.25;;;12.30;;
21103;SDS011;10710;53.398;-1.514;2022-12-18T07:55:59;25.88;;;10.63;;
21103;SDS011;10710;53.398;-1.514;2022-12-18T07:58:28;26.25;;;10.88;;
21103;SDS011;10710;53.398;-1.514;2022-12-18T08:00:54;27.75;;;10.77;;
21103;SDS011;10710;53.398;-1.514;2022-12-18T08:03:26;28.45;;;11.18;;
21103;SDS011;10710;53.398;-1.514;2022-12-18T08:05:52;30.65;;;11.60;;
21103;SDS011;10710;53.398;-1.514;2022-12-18T08:08:24;27.83;;;10.70;;
21103;SDS011;10710;53.398;-1.514;2022-12-18T08:10:49;32.67;;;10.85;;
21103;SDS011;10710;53.398;-1.514;2022-12-18T08:13:15;28.05;;;11.40;;
21103;SDS011;10710;53.398;-1.514;2022-12-18T08:15:41;31.60;;;11.13;;
21103;SDS011;10710;53.398;-1.514;2022-12-18T08:18:07;31.95;;;11.95;;
21103;SDS011;10710;53.398;-1.514;2022-12-18T08:20:33;25.45;;;10.70;;
21103;SDS011;10710;53.398;-1.514;2022-12-18T08:22:58;25.80;;;10.40;;
21103;SDS011;10710;53.398;-1.514;2022-12-18T08:25:24;30.30;;;10.02;;
21103;SDS011;10710;53.398;-1.514;2022-12-18T08:27:50;28.40;;;10.90;;
21103;SDS011;10710;53.398;-1.514;2022-12-18T08:30:16;27.47;;;10.03;;
21103;SDS011;10710;53.398;-1.514;2022-12-18T08:32:42;28.83;;;10.30;;
21103;SDS011;10710;53.398;-1.514;2022-12-18T08:35:08;30.50;;;11.73;;
21103;SDS011;10710;53.398;-1.514;2022-12-18T08:37:34;24.90;;;10.25;;
21103;SDS011;10710;53.398;-1.514;2022-12-18T08:40:00;26.25;;;10.73;;
21103;SDS011;10710;53.398;-1.514;2022-12-18T08:42:26;24.98;;;10.25;;
21103;SDS011;10710;53.398;-1.514;2022-12-18T08:45:10;29.27;;;10.63;;
21103;SDS011;10710;53.398;-1.514;2022-12-18T08:47:36;34.47;;;11.60;;
21103;SDS011;10710;53.398;-1.514;2022-12-18T08:50:02;23.57;;;10.30;;
21103;SDS011;10710;53.398;-1.514;2022-12-18T08:52:30;27.60;;;10.55;;
21103;SDS011;10710;53.398;-1.514;2022-12-18T08:54:57;26.08;;;10.18;;
21103;SDS011;10710;53.398;-1.514;2022-12-18T08:57:23;25.70;;;10.20;;
21103;SDS011;10710;53.398;-1.514;2022-12-18T08:59:48;30.92;;;10.52;;
21103;SDS011;10710;53.398;-1.514;2022-12-18T09:02:14;26.58;;;9.30;;
21103;SDS011;10710;53.398;-1.514;2022-12-18T09:04:40;27.65;;;10.13;;
21103;SDS011;10710;53.398;-1.514;2022-12-18T09:07:06;24.50;;;10.15;;
21103;SDS011;10710;53.398;-1.514;2022-12-18T09:09:32;27.02;;;9.48;;
21103;SDS011;10710;53.398;-1.514;2022-12-18T09:11:58;29.43;;;10.53;;
21103;SDS011;10710;53.398;-1.514;2022-12-18T09:14:24;27.23;;;9.57;;
21103;SDS011;10710;53.398;-1.514;2022-12-18T09:16:49;24.23;;;10.70;;
21103;SDS011;10710;53.398;-1.514;2022-12-18T09:19:15;28.07;;;9.13;;
21103;SDS011;10710;53.398;-1.514;2022-12-18T09:21:41;25.35;;;10.20;;
21103;SDS011;10710;53.398;-1.514;2022-12-18T09:24:08;23.90;;;9.73;;
21103;SDS011;10710;53.398;-1.514;2022-12-18T09:26:40;29.42;;;9.77;;
21103;SDS011;10710;53.398;-1.514;2022-12-18T09:29:06;25.92;;;10.45;;
21103;SDS011;10710;53.398;-1.514;2022-12-18T09:31:33;23.38;;;8.45;;
21103;SDS011;10710;53.398;-1.514;2022-12-18T09:34:06;31.67;;;9.83;;
21103;SDS011;10710;53.398;-1.514;2022-12-18T09:36:32;28.15;;;10.20;;
21103;SDS011;10710;53.398;-1.514;2022-12-18T09:38:58;24.77;;;9.00;;
21103;SDS011;10710;53.398;-1.514;2022-12-18T09:44:11;31.70;;;11.07;;
21103;SDS011;10710;53.398;-1.514;2022-12-18T09:46:44;25.42;;;10.93;;
21103;SDS011;10710;53.398;-1.514;2022-12-18T09:49:18;25.42;;;9.32;;
21103;SDS011;10710;53.398;-1.514;2022-12-18T09:51:50;28.08;;;10.00;;
21103;SDS011;10710;53.398;-1.514;2022-12-18T09:54:24;26.20;;;9.83;;
21103;SDS011;10710;53.398;-1.514;2022-12-18T09:56:55;29.10;;;10.07;;
21103;SDS011;10710;53.398;-1.514;2022-12-18T09:59:23;27.93;;;10.40;;
21103;SDS011;10710;53.398;-1.514;2022-12-18T10:01:51;32.47;;;10.05;;
21103;SDS011;10710;53.398;-1.514;2022-12-18T10:04:18;22.48;;;9.60;;
21103;SDS011;10710;53.398;-1.514;2022-12-18T10:06:59;25.23;;;9.77;;
21103;SDS011;10710;53.398;-1.514;2022-12-18T10:12:43;31.08;;;10.02;;
21103;SDS011;10710;53.398;-1.514;2022-12-18T10:15:36;21.05;;;8.88;;
21103;SDS011;10710;53.398;-1.514;2022-12-18T10:20:59;29.27;;;11.07;;
21103;SDS011;10710;53.398;-1.514;2022-12-18T10:26:08;43.28;;;16.42;;
21103;SDS011;10710;53.398;-1.514;2022-12-18T10:28:39;26.55;;;9.43;;
21103;SDS011;10710;53.398;-1.514;2022-12-18T10:31:16;29.38;;;9.07;;
21103;SDS011;10710;53.398;-1.514;2022-12-18T10:33:44;28.13;;;11.00;;
21103;SDS011;10710;53.398;-1.514;2022-12-18T10:36:10;26.60;;;9.80;;
21103;SDS011;10710;53.398;-1.514;2022-12-18T10:38:36;19.73;;;7.78;;
21103;SDS011;10710;53.398;-1.514;2022-12-18T10:41:05;22.70;;;9.43;;
21103;SDS011;10710;53.398;-1.514;2022-12-18T10:44:10;19.75;;;8.27;;
21103;SDS011;10710;53.398;-1.514;2022-12-18T10:46:50;24.25;;;9.52;;
21103;SDS011;10710;53.398;-1.514;2022-12-18T10:49:32;39.38;;;17.10;;
21103;SDS011;10710;53.398;-1.514;2022-12-18T10:52:17;26.60;;;9.60;;
21103;SDS011;10710;53.398;-1.514;2022-12-18T10:54:50;27.30;;;9.93;;
21103;SDS011;10710;53.398;-1.514;2022-12-18T11:03:01;21.88;;;9.45;;
21103;SDS011;10710;53.398;-1.514;2022-12-18T11:05:28;27.80;;;8.90;;
21103;SDS011;10710;53.398;-1.514;2022-12-18T11:07:56;23.02;;;9.25;;
21103;SDS011;10710;53.398;-1.514;2022-12-18T11:10:28;22.15;;;10.15;;
21103;SDS011;10710;53.398;-1.514;2022-12-18T11:13:20;18.17;;;7.65;;
21103;SDS011;10710;53.398;-1.514;2022-12-18T11:15:48;26.15;;;10.55;;
21103;SDS011;10710;53.398;-1.514;2022-12-18T11:20:51;23.40;;;9.03;;
21103;SDS011;10710;53.398;-1.514;2022-12-18T11:23:22;21.25;;;9.07;;
21103;SDS011;10710;53.398;-1.514;2022-12-18T11:25:56;22.90;;;8.43;;
21103;SDS011;10710;53.398;-1.514;2022-12-18T11:28:34;23.30;;;8.60;;
21103;SDS011;10710;53.398;-1.514;2022-12-18T11:31:22;21.58;;;9.45;;
21103;SDS011;10710;53.398;-1.514;2022-12-18T11:36:42;22.48;;;8.85;;
21103;SDS011;10710;53.398;-1.514;2022-12-18T11:39:21;19.30;;;8.85;;
21103;SDS011;10710;53.398;-1.514;2022-12-18T11:42:24;18.80;;;8.30;;
21103;SDS011;10710;53.398;-1.514;2022-12-18T11:45:01;26.67;;;9.20;;
21103;SDS011;10710;53.398;-1.514;2022-12-18T11:50:16;25.02;;;8.35;;
21103;SDS011;10710;53.398;-1.514;2022-12-18T11:52:49;21.10;;;8.98;;
21103;SDS011;10710;53.398;-1.514;2022-12-18T12:00:56;19.47;;;8.53;;
21103;SDS011;10710;53.398;-1.514;2022-12-18T12:11:46;20.70;;;8.60;;
21103;SDS011;10710;53.398;-1.514;2022-12-18T12:14:38;17.35;;;7.97;;
21103;SDS011;10710;53.398;-1.514;2022-12-18T12:17:18;20.10;;;8.90;;
21103;SDS011;10710;53.398;-1.514;2022-12-18T12:20:18;19.98;;;8.63;;
21103;SDS011;10710;53.398;-1.514;2022-12-18T12:22:54;20.92;;;8.20;;
21103;SDS011;10710;53.398;-1.514;2022-12-18T12:25:42;21.45;;;8.60;;
21103;SDS011;10710;53.398;-1.514;2022-12-18T12:28:30;27.92;;;8.70;;
21103;SDS011;10710;53.398;-1.514;2022-12-18T12:31:19;24.48;;;9.18;;
21103;SDS011;10710;53.398;-1.514;2022-12-18T12:34:21;32.58;;;8.85;;
21103;SDS011;10710;53.398;-1.514;2022-12-18T12:39:40;19.38;;;7.25;;
21103;SDS011;10710;53.398;-1.514;2022-12-18T12:42:20;20.80;;;8.48;;
21103;SDS011;10710;53.398;-1.514;2022-12-18T12:45:30;21.63;;;8.90;;
21103;SDS011;10710;53.398;-1.514;2022-12-18T12:48:02;26.13;;;9.75;;
21103;SDS011;10710;53.398;-1.514;2022-12-18T12:50:30;28.58;;;12.88;;
21103;SDS011;10710;53.398;-1.514;2022-12-18T12:53:01;25.07;;;10.27;;
21103;SDS011;10710;53.398;-1.514;2022-12-18T12:55:33;23.48;;;9.85;;
21103;SDS011;10710;53.398;-1.514;2022-12-18T13:06:19;21.23;;;8.85;;
21103;SDS011;10710;53.398;-1.514;2022-12-18T13:09:01;27.10;;;10.70;;
21103;SDS011;10710;53.398;-1.514;2022-12-18T13:11:30;22.40;;;10.45;;
21103;SDS011;10710;53.398;-1.514;2022-12-18T13:14:33;23.65;;;9.00;;
21103;SDS011;10710;53.398;-1.514;2022-12-18T13:17:36;23.95;;;10.23;;
21103;SDS011;10710;53.398;-1.514;2022-12-18T13:20:06;21.15;;;8.43;;
21103;SDS011;10710;53.398;-1.514;2022-12-18T13:22:36;23.13;;;8.77;;
21103;SDS011;10710;53.398;-1.514;2022-12-18T13:28:08;22.17;;;8.75;;
21103;SDS011;10710;53.398;-1.514;2022-12-18T13:38:45;26.10;;;10.48;;
21103;SDS011;10710;53.398;-1.514;2022-12-18T13:43:44;17.70;;;8.20;;
21103;SDS011;10710;53.398;-1.514;2022-12-18T13:46:25;18.73;;;8.77;;
21103;SDS011;10710;53.398;-1.514;2022-12-18T13:48:59;24.83;;;9.77;;
21103;SDS011;10710;53.398;-1.514;2022-12-18T13:51:32;18.50;;;7.88;;
21103;SDS011;10710;53.398;-1.514;2022-12-18T13:54:00;19.08;;;8.05;;
21103;SDS011;10710;53.398;-1.514;2022-12-18T13:56:46;22.58;;;8.32;;
21103;SDS011;10710;53.398;-1.514;2022-12-18T13:59:15;20.73;;;8.73;;
21103;SDS011;10710;53.398;-1.514;2022-12-18T14:01:42;21.48;;;9.13;;
21103;SDS011;10710;53.398;-1.514;2022-12-18T14:06:56;25.90;;;8.60;;
21103;SDS011;10710;53.398;-1.514;2022-12-18T14:09:31;20.58;;;8.65;;
21103;SDS011;10710;53.398;-1.514;2022-12-18T14:12:11;26.17;;;9.10;;
21103;SDS011;10710;53.398;-1.514;2022-12-18T14:15:32;21.27;;;9.00;;
21103;SDS011;10710;53.398;-1.514;2022-12-18T14:20:51;18.58;;;8.32;;
21103;SDS011;10710;53.398;-1.514;2022-12-18T14:23:39;21.58;;;8.48;;
21103;SDS011;10710;53.398;-1.514;2022-12-18T14:28:50;18.15;;;7.55;;
21103;SDS011;10710;53.398;-1.514;2022-12-18T14:31:19;21.55;;;7.93;;
21103;SDS011;10710;53.398;-1.514;2022-12-18T14:33:46;19.88;;;8.25;;
21103;SDS011;10710;53.398;-1.514;2022-12-18T14:36:17;25.80;;;8.30;;
21103;SDS011;10710;53.398;-1.514;2022-12-18T14:38:47;19.60;;;7.78;;
21103;SDS011;10710;53.398;-1.514;2022-12-18T14:41:19;18.90;;;8.60;;
21103;SDS011;10710;53.398;-1.514;2022-12-18T14:43:47;20.05;;;8.90;;
21103;SDS011;10710;53.398;-1.514;2022-12-18T14:51:56;23.63;;;8.77;;
21103;SDS011;10710;53.398;-1.514;2022-12-18T14:54:45;20.90;;;7.65;;
21103;SDS011;10710;53.398;-1.514;2022-12-18T14:57:21;18.88;;;7.70;;
21103;SDS011;10710;53.398;-1.514;2022-12-18T14:59:50;30.52;;;8.80;;
21103;SDS011;10710;53.398;-1.514;2022-12-18T15:04:59;28.38;;;9.23;;
21103;SDS011;10710;53.398;-1.514;2022-12-18T15:07:26;16.85;;;7.75;;
21103;SDS011;10710;53.398;-1.514;2022-12-18T15:12:46;18.88;;;8.30;;
21103;SDS011;10710;53.398;-1.514;2022-12-18T15:20:41;23.70;;;11.37;;
21103;SDS011;10710;53.398;-1.514;2022-12-18T15:23:17;20.42;;;8.75;;
21103;SDS011;10710;53.398;-1.514;2022-12-18T15:25:47;19.30;;;10.52;;
21103;SDS011;10710;53.398;-1.514;2022-12-18T15:28:30;33.37;;;15.13;;
21103;SDS011;10710;53.398;-1.514;2022-12-18T15:30:58;19.55;;;8.55;;
21103;SDS011;10710;53.398;-1.514;2022-12-18T15:36:41;21.48;;;8.13;;
21103;SDS011;10710;53.398;-1.514;2022-12-18T15:39:14;20.42;;;7.70;;
21103;SDS011;10710;53.398;-1.514;2022-12-18T15:41:44;18.63;;;8.90;;
21103;SDS011;10710;53.398;-1.514;2022-12-18T15:44:30;16.60;;;7.75;;
21103;SDS011;10710;53.398;-1.514;2022-12-18T15:47:09;16.95;;;8.40;;
21103;SDS011;10710;53.398;-1.514;2022-12-18T15:49:56;20.27;;;9.07;;
21103;SDS011;10710;53.398;-1.514;2022-12-18T15:52:28;18.58;;;8.00;;
21103;SDS011;10710;53.398;-1.514;2022-12-18T15:54:57;16.65;;;7.78;;
21103;SDS011;10710;53.398;-1.514;2022-12-18T15:57:42;20.92;;;8.98;;
21103;SDS011;10710;53.398;-1.514;2022-12-18T16:00:11;16.90;;;7.78;;
21103;SDS011;10710;53.398;-1.514;2022-12-18T16:02:41;13.98;;;7.68;;
21103;SDS011;10710;53.398;-1.514;2022-12-18T16:05:37;27.90;;;9.93;;
21103;SDS011;10710;53.398;-1.514;2022-12-18T16:11:02;18.27;;;7.90;;
21103;SDS011;10710;53.398;-1.514;2022-12-18T16:14:42;18.83;;;6.95;;
21103;SDS011;10710;53.398;-1.514;2022-12-18T16:17:42;15.13;;;7.35;;
21103;SDS011;10710;53.398;-1.514;2022-12-18T16:20:32;15.75;;;6.82;;
21103;SDS011;10710;53.398;-1.514;2022-12-18T16:23:01;17.77;;;7.45;;
21103;SDS011;10710;53.398;-1.514;2022-12-18T16:28:55;12.55;;;6.35;;
21103;SDS011;10710;53.398;-1.514;2022-12-18T16:31:21;15.93;;;6.55;;
21103;SDS011;10710;53.398;-1.514;2022-12-18T16:33:48;12.68;;;5.82;;
21103;SDS011;10710;53.398;-1.514;2022-12-18T16:36:14;16.48;;;6.82;;
21103;SDS011;10710;53.398;-1.514;2022-12-18T16:38:40;15.10;;;6.72;;
21103;SDS011;10710;53.398;-1.514;2022-12-18T16:41:15;13.18;;;6.18;;
21103;SDS011;10710;53.398;-1.514;2022-12-18T16:43:59;13.30;;;5.93;;
21103;SDS011;10710;53.398;-1.514;2022-12-18T16:46:25;11.32;;;5.70;;
21103;SDS011;10710;53.398;-1.514;2022-12-18T16:48:51;11.77;;;5.63;;
21103;SDS011;10710;53.398;-1.514;2022-12-18T16:51:20;15.90;;;7.65;;
21103;SDS011;10710;53.398;-1.514;2022-12-18T16:53:46;16.25;;;6.80;;
21103;SDS011;10710;53.398;-1.514;2022-12-18T16:56:13;13.02;;;5.75;;